SBUG/URG METAR and TAF weather

Enter ICAO airport designator
Station Type Date Time Source
SBUG METAR 2019/09/23 13:00 UTC NOAA

SBUG 231300Z 08015KT CAVOK 16/05 Q1025


Station Type Date Time Source
SBUG Decoded METAR 2019/09/23 13:00 UTC NOAA

Uruguaiana Aeroporto , Brazil (SBUG) 29-47S 057-02W 74M
Sep 23, 2019 - 09:00 AM EDT / 2019.09.23 1300 UTC
Wind: from the E (080 degrees) at 17 MPH (15 KT):0
Visibility: greater than 7 mile(s):0
Temperature: 60 F (16 C)
Dew Point: 41 F (5 C)
Relative Humidity: 47%
Pressure (altimeter): 30.27 in. Hg (1025 hPa)
ob: SBUG 231300Z 08015KT CAVOK 16/05 Q1025
cycle: 13

Station Type Date Time Source
SBUG TAF 2019/10/23 12:33 UTC NOAA

TAF SBUG 230930Z 2312/2324 15007KT CAVOK TN17/2312Z TX26/2318Z
RMK PER

Example: see airport list